Little Creek, Delaware
Current Conditions -  °F | °C
As of 12:58 PM on Thursday 30 Oct 2014 (Local Time) from KDOV Reporting Station
Clear Clear  
Wind Chill: 58°   Ceiling: Unl
Heat Index: 58°   Visibility: 10mi
Dew Point: 42°   Wind: 3mph
Humidity: 57%   Direction: NA
Pressure: 30"   Gusts: NA
Location:  39.17°N, 75.45°W
Report Text: KDOV 301658Z AUTO VRB03KT 10SM CLR 14/06 A3000 RMK AO2 SLP162 T01430058
Loading
Personal Weather Stations






























Interactive Weather Map
Tropical Storm Tracking
New forecast layout! Learn more

10-Day Weather Forecast

Advertisements
Track Severe Weather on mobile